sensor_id;sensor_type;location;lat;lon;timestamp;P1;durP1;ratioP1;P2;durP2;ratioP2
8365;SDS011;4220;42.502;24.188;2023-03-14T00:00:56;14.87;;;9.93;;
8365;SDS011;4220;42.502;24.188;2023-03-14T00:03:23;11.57;;;7.73;;
8365;SDS011;4220;42.502;24.188;2023-03-14T00:05:50;9.33;;;7.17;;
8365;SDS011;4220;42.502;24.188;2023-03-14T00:08:18;12.97;;;9.03;;
8365;SDS011;4220;42.502;24.188;2023-03-14T00:10:46;9.37;;;7.77;;
8365;SDS011;4220;42.502;24.188;2023-03-14T00:13:13;12.07;;;7.93;;
8365;SDS011;4220;42.502;24.188;2023-03-14T00:15:40;12.50;;;7.90;;
8365;SDS011;4220;42.502;24.188;2023-03-14T00:18:06;10.77;;;7.60;;
8365;SDS011;4220;42.502;24.188;2023-03-14T00:20:33;14.73;;;8.57;;
8365;SDS011;4220;42.502;24.188;2023-03-14T00:23:00;13.13;;;8.27;;
8365;SDS011;4220;42.502;24.188;2023-03-14T00:25:29;7.47;;;5.43;;
8365;SDS011;4220;42.502;24.188;2023-03-14T00:27:55;7.13;;;6.43;;
8365;SDS011;4220;42.502;24.188;2023-03-14T00:30:22;10.10;;;7.23;;
8365;SDS011;4220;42.502;24.188;2023-03-14T00:32:49;9.13;;;4.90;;
8365;SDS011;4220;42.502;24.188;2023-03-14T00:35:16;7.53;;;4.83;;
8365;SDS011;4220;42.502;24.188;2023-03-14T00:37:43;9.70;;;5.70;;
8365;SDS011;4220;42.502;24.188;2023-03-14T00:40:10;6.63;;;4.37;;
8365;SDS011;4220;42.502;24.188;2023-03-14T00:42:38;4.40;;;3.43;;
8365;SDS011;4220;42.502;24.188;2023-03-14T00:45:06;3.77;;;2.73;;
8365;SDS011;4220;42.502;24.188;2023-03-14T00:47:34;2.53;;;2.33;;
8365;SDS011;4220;42.502;24.188;2023-03-14T00:50:00;3.83;;;2.50;;
8365;SDS011;4220;42.502;24.188;2023-03-14T00:52:27;5.50;;;4.17;;
8365;SDS011;4220;42.502;24.188;2023-03-14T00:54:54;11.40;;;7.47;;
8365;SDS011;4220;42.502;24.188;2023-03-14T00:57:21;12.67;;;8.00;;
8365;SDS011;4220;42.502;24.188;2023-03-14T00:59:50;11.43;;;7.73;;
8365;SDS011;4220;42.502;24.188;2023-03-14T01:02:17;13.87;;;8.60;;
8365;SDS011;4220;42.502;24.188;2023-03-14T01:04:44;11.53;;;7.97;;
8365;SDS011;4220;42.502;24.188;2023-03-14T01:07:13;13.13;;;8.27;;
8365;SDS011;4220;42.502;24.188;2023-03-14T01:09:40;14.77;;;8.70;;
8365;SDS011;4220;42.502;24.188;2023-03-14T01:12:07;13.37;;;7.60;;
8365;SDS011;4220;42.502;24.188;2023-03-14T01:14:33;9.33;;;6.83;;
8365;SDS011;4220;42.502;24.188;2023-03-14T01:17:02;15.87;;;9.57;;
8365;SDS011;4220;42.502;24.188;2023-03-14T01:19:29;16.23;;;11.07;;
8365;SDS011;4220;42.502;24.188;2023-03-14T01:21:56;12.77;;;7.87;;
8365;SDS011;4220;42.502;24.188;2023-03-14T01:24:23;10.13;;;5.83;;
8365;SDS011;4220;42.502;24.188;2023-03-14T01:26:50;5.50;;;4.90;;
8365;SDS011;4220;42.502;24.188;2023-03-14T01:29:17;5.23;;;3.97;;
8365;SDS011;4220;42.502;24.188;2023-03-14T01:31:43;6.07;;;4.00;;
8365;SDS011;4220;42.502;24.188;2023-03-14T01:34:12;4.37;;;3.70;;
8365;SDS011;4220;42.502;24.188;2023-03-14T01:36:39;5.33;;;4.33;;
8365;SDS011;4220;42.502;24.188;2023-03-14T01:39:05;10.23;;;7.40;;
8365;SDS011;4220;42.502;24.188;2023-03-14T01:41:33;13.50;;;9.30;;
8365;SDS011;4220;42.502;24.188;2023-03-14T01:44:00;19.13;;;11.40;;
8365;SDS011;4220;42.502;24.188;2023-03-14T01:46:34;20.80;;;10.60;;
8365;SDS011;4220;42.502;24.188;2023-03-14T01:49:08;12.43;;;7.33;;
8365;SDS011;4220;42.502;24.188;2023-03-14T01:51:45;12.23;;;8.10;;
8365;SDS011;4220;42.502;24.188;2023-03-14T01:54:18;16.07;;;9.30;;
8365;SDS011;4220;42.502;24.188;2023-03-14T01:56:49;11.37;;;8.10;;
8365;SDS011;4220;42.502;24.188;2023-03-14T01:59:19;12.30;;;8.23;;
8365;SDS011;4220;42.502;24.188;2023-03-14T02:01:46;13.43;;;7.93;;
8365;SDS011;4220;42.502;24.188;2023-03-14T02:04:17;9.63;;;7.67;;
8365;SDS011;4220;42.502;24.188;2023-03-14T02:06:47;9.33;;;6.80;;
8365;SDS011;4220;42.502;24.188;2023-03-14T02:09:18;9.43;;;8.17;;
8365;SDS011;4220;42.502;24.188;2023-03-14T02:11:45;11.57;;;7.60;;
8365;SDS011;4220;42.502;24.188;2023-03-14T02:14:14;11.00;;;7.13;;
8365;SDS011;4220;42.502;24.188;2023-03-14T02:16:48;11.07;;;6.23;;
8365;SDS011;4220;42.502;24.188;2023-03-14T02:19:16;8.13;;;5.50;;
8365;SDS011;4220;42.502;24.188;2023-03-14T02:21:52;9.20;;;6.37;;
8365;SDS011;4220;42.502;24.188;2023-03-14T02:24:25;8.00;;;5.50;;
8365;SDS011;4220;42.502;24.188;2023-03-14T02:27:08;7.27;;;4.57;;
8365;SDS011;4220;42.502;24.188;2023-03-14T02:29:37;5.93;;;3.60;;
8365;SDS011;4220;42.502;24.188;2023-03-14T02:32:10;5.57;;;4.57;;
8365;SDS011;4220;42.502;24.188;2023-03-14T02:34:38;5.97;;;3.83;;
8365;SDS011;4220;42.502;24.188;2023-03-14T02:37:08;5.97;;;3.37;;
8365;SDS011;4220;42.502;24.188;2023-03-14T02:39:36;3.20;;;2.90;;
8365;SDS011;4220;42.502;24.188;2023-03-14T02:42:06;3.50;;;3.10;;
8365;SDS011;4220;42.502;24.188;2023-03-14T02:44:34;5.87;;;4.20;;
8365;SDS011;4220;42.502;24.188;2023-03-14T02:47:02;5.63;;;4.10;;
8365;SDS011;4220;42.502;24.188;2023-03-14T02:49:30;8.27;;;4.03;;
8365;SDS011;4220;42.502;24.188;2023-03-14T02:51:59;4.13;;;3.40;;
8365;SDS011;4220;42.502;24.188;2023-03-14T02:54:26;7.13;;;6.03;;
8365;SDS011;4220;42.502;24.188;2023-03-14T02:56:53;9.77;;;7.13;;
8365;SDS011;4220;42.502;24.188;2023-03-14T02:59:19;11.57;;;5.70;;
8365;SDS011;4220;42.502;24.188;2023-03-14T03:01:48;9.33;;;5.60;;
8365;SDS011;4220;42.502;24.188;2023-03-14T03:04:14;11.43;;;6.00;;
8365;SDS011;4220;42.502;24.188;2023-03-14T03:06:41;10.50;;;7.50;;
8365;SDS011;4220;42.502;24.188;2023-03-14T03:09:08;11.83;;;8.30;;
8365;SDS011;4220;42.502;24.188;2023-03-14T03:11:35;11.30;;;7.13;;
8365;SDS011;4220;42.502;24.188;2023-03-14T03:14:02;18.63;;;8.00;;
8365;SDS011;4220;42.502;24.188;2023-03-14T03:16:29;8.77;;;6.40;;
8365;SDS011;4220;42.502;24.188;2023-03-14T03:18:57;9.07;;;6.60;;
8365;SDS011;4220;42.502;24.188;2023-03-14T03:21:24;7.77;;;5.87;;
8365;SDS011;4220;42.502;24.188;2023-03-14T03:23:51;11.27;;;6.40;;
8365;SDS011;4220;42.502;24.188;2023-03-14T03:26:17;6.50;;;4.87;;
8365;SDS011;4220;42.502;24.188;2023-03-14T03:28:44;6.97;;;4.47;;
8365;SDS011;4220;42.502;24.188;2023-03-14T03:31:11;5.83;;;4.87;;
8365;SDS011;4220;42.502;24.188;2023-03-14T03:33:38;5.00;;;3.87;;
8365;SDS011;4220;42.502;24.188;2023-03-14T03:36:07;6.30;;;2.43;;
8365;SDS011;4220;42.502;24.188;2023-03-14T03:38:35;2.67;;;2.33;;
8365;SDS011;4220;42.502;24.188;2023-03-14T03:41:02;3.90;;;2.20;;
8365;SDS011;4220;42.502;24.188;2023-03-14T03:43:30;3.30;;;2.40;;
8365;SDS011;4220;42.502;24.188;2023-03-14T03:45:57;2.50;;;2.30;;
8365;SDS011;4220;42.502;24.188;2023-03-14T03:48:24;5.90;;;2.40;;
8365;SDS011;4220;42.502;24.188;2023-03-14T03:50:51;3.60;;;2.70;;
8365;SDS011;4220;42.502;24.188;2023-03-14T03:53:19;3.30;;;3.00;;
8365;SDS011;4220;42.502;24.188;2023-03-14T03:55:46;7.17;;;4.87;;
8365;SDS011;4220;42.502;24.188;2023-03-14T03:58:13;5.90;;;4.23;;
8365;SDS011;4220;42.502;24.188;2023-03-14T04:00:40;6.93;;;4.87;;
8365;SDS011;4220;42.502;24.188;2023-03-14T04:03:07;7.23;;;3.80;;
8365;SDS011;4220;42.502;24.188;2023-03-14T04:05:34;4.40;;;3.20;;
8365;SDS011;4220;42.502;24.188;2023-03-14T04:08:01;5.40;;;3.17;;
8365;SDS011;4220;42.502;24.188;2023-03-14T04:10:29;4.43;;;3.50;;
8365;SDS011;4220;42.502;24.188;2023-03-14T04:12:59;3.33;;;2.90;;
8365;SDS011;4220;42.502;24.188;2023-03-14T04:15:26;6.00;;;3.90;;
8365;SDS011;4220;42.502;24.188;2023-03-14T04:17:55;7.03;;;4.07;;
8365;SDS011;4220;42.502;24.188;2023-03-14T04:20:24;14.27;;;7.03;;
8365;SDS011;4220;42.502;24.188;2023-03-14T04:22:51;8.70;;;6.00;;
8365;SDS011;4220;42.502;24.188;2023-03-14T04:25:18;9.97;;;7.03;;
8365;SDS011;4220;42.502;24.188;2023-03-14T04:27:46;11.77;;;8.37;;
8365;SDS011;4220;42.502;24.188;2023-03-14T04:30:13;11.23;;;8.57;;
8365;SDS011;4220;42.502;24.188;2023-03-14T04:32:40;14.30;;;9.77;;
8365;SDS011;4220;42.502;24.188;2023-03-14T04:35:07;14.70;;;9.70;;
8365;SDS011;4220;42.502;24.188;2023-03-14T04:37:35;18.40;;;10.40;;
8365;SDS011;4220;42.502;24.188;2023-03-14T04:40:02;10.70;;;7.40;;
8365;SDS011;4220;42.502;24.188;2023-03-14T04:42:31;9.50;;;6.07;;
8365;SDS011;4220;42.502;24.188;2023-03-14T04:44:59;11.23;;;6.10;;
8365;SDS011;4220;42.502;24.188;2023-03-14T04:47:26;9.50;;;6.53;;
8365;SDS011;4220;42.502;24.188;2023-03-14T04:49:54;10.67;;;8.43;;
8365;SDS011;4220;42.502;24.188;2023-03-14T04:52:21;16.93;;;9.70;;
8365;SDS011;4220;42.502;24.188;2023-03-14T04:54:47;12.17;;;8.27;;
8365;SDS011;4220;42.502;24.188;2023-03-14T04:57:14;42.27;;;24.87;;
8365;SDS011;4220;42.502;24.188;2023-03-14T04:59:41;227.37;;;115.23;;
8365;SDS011;4220;42.502;24.188;2023-03-14T05:02:09;141.50;;;74.20;;
8365;SDS011;4220;42.502;24.188;2023-03-14T05:04:36;126.93;;;72.63;;
8365;SDS011;4220;42.502;24.188;2023-03-14T05:07:03;39.87;;;27.50;;
8365;SDS011;4220;42.502;24.188;2023-03-14T05:09:30;103.43;;;54.00;;
8365;SDS011;4220;42.502;24.188;2023-03-14T05:11:57;33.77;;;19.57;;
8365;SDS011;4220;42.502;24.188;2023-03-14T05:14:24;31.33;;;21.73;;
8365;SDS011;4220;42.502;24.188;2023-03-14T05:16:50;264.10;;;131.00;;
8365;SDS011;4220;42.502;24.188;2023-03-14T05:19:19;215.50;;;113.10;;
8365;SDS011;4220;42.502;24.188;2023-03-14T05:21:46;49.03;;;26.87;;
8365;SDS011;4220;42.502;24.188;2023-03-14T05:24:12;32.07;;;22.27;;
8365;SDS011;4220;42.502;24.188;2023-03-14T05:26:39;24.90;;;16.40;;
8365;SDS011;4220;42.502;24.188;2023-03-14T05:29:06;20.90;;;14.13;;
8365;SDS011;4220;42.502;24.188;2023-03-14T05:31:33;20.17;;;14.03;;
8365;SDS011;4220;42.502;24.188;2023-03-14T05:34:00;23.13;;;14.70;;
8365;SDS011;4220;42.502;24.188;2023-03-14T05:36:28;22.50;;;15.43;;
8365;SDS011;4220;42.502;24.188;2023-03-14T05:38:55;23.33;;;13.33;;
8365;SDS011;4220;42.502;24.188;2023-03-14T05:41:22;16.57;;;11.33;;
8365;SDS011;4220;42.502;24.188;2023-03-14T05:43:49;10.10;;;7.43;;
8365;SDS011;4220;42.502;24.188;2023-03-14T05:46:15;18.23;;;9.73;;
8365;SDS011;4220;42.502;24.188;2023-03-14T05:48:42;14.03;;;8.90;;
8365;SDS011;4220;42.502;24.188;2023-03-14T05:51:09;8.38;;;6.57;;
8365;SDS011;4220;42.502;24.188;2023-03-14T05:53:37;7.60;;;4.73;;
8365;SDS011;4220;42.502;24.188;2023-03-14T05:56:04;6.47;;;4.37;;
8365;SDS011;4220;42.502;24.188;2023-03-14T05:58:32;7.57;;;4.80;;
8365;SDS011;4220;42.502;24.188;2023-03-14T06:01:01;10.20;;;5.87;;
8365;SDS011;4220;42.502;24.188;2023-03-14T06:03:28;13.93;;;6.13;;
8365;SDS011;4220;42.502;24.188;2023-03-14T06:05:55;10.90;;;6.60;;
8365;SDS011;4220;42.502;24.188;2023-03-14T06:08:22;12.23;;;5.73;;
8365;SDS011;4220;42.502;24.188;2023-03-14T06:10:50;10.73;;;7.20;;
8365;SDS011;4220;42.502;24.188;2023-03-14T06:13:17;25.13;;;11.47;;
8365;SDS011;4220;42.502;24.188;2023-03-14T06:15:44;46.10;;;22.37;;
8365;SDS011;4220;42.502;24.188;2023-03-14T06:18:10;45.40;;;22.43;;
8365;SDS011;4220;42.502;24.188;2023-03-14T06:20:39;40.57;;;21.20;;
8365;SDS011;4220;42.502;24.188;2023-03-14T06:23:06;30.63;;;21.23;;
8365;SDS011;4220;42.502;24.188;2023-03-14T06:25:33;31.97;;;22.97;;
8365;SDS011;4220;42.502;24.188;2023-03-14T06:28:02;30.53;;;18.97;;
8365;SDS011;4220;42.502;24.188;2023-03-14T06:30:29;26.37;;;17.60;;
8365;SDS011;4220;42.502;24.188;2023-03-14T06:32:56;28.53;;;19.73;;
8365;SDS011;4220;42.502;24.188;2023-03-14T06:35:23;32.77;;;19.20;;
8365;SDS011;4220;42.502;24.188;2023-03-14T06:37:49;28.97;;;19.90;;
8365;SDS011;4220;42.502;24.188;2023-03-14T06:40:16;27.93;;;20.10;;
8365;SDS011;4220;42.502;24.188;2023-03-14T06:42:44;49.03;;;30.17;;
8365;SDS011;4220;42.502;24.188;2023-03-14T06:45:12;50.80;;;31.13;;
8365;SDS011;4220;42.502;24.188;2023-03-14T06:47:40;32.70;;;24.13;;
8365;SDS011;4220;42.502;24.188;2023-03-14T06:50:07;28.70;;;20.57;;
8365;SDS011;4220;42.502;24.188;2023-03-14T06:52:35;23.67;;;16.40;;
8365;SDS011;4220;42.502;24.188;2023-03-14T06:55:02;23.27;;;17.67;;
8365;SDS011;4220;42.502;24.188;2023-03-14T06:57:29;28.60;;;17.77;;
8365;SDS011;4220;42.502;24.188;2023-03-14T06:59:56;28.00;;;18.10;;
8365;SDS011;4220;42.502;24.188;2023-03-14T07:02:24;24.67;;;17.00;;
8365;SDS011;4220;42.502;24.188;2023-03-14T07:04:51;16.47;;;13.30;;
8365;SDS011;4220;42.502;24.188;2023-03-14T07:07:18;19.30;;;13.67;;
8365;SDS011;4220;42.502;24.188;2023-03-14T07:09:45;18.03;;;13.77;;
8365;SDS011;4220;42.502;24.188;2023-03-14T07:12:12;20.13;;;14.43;;
8365;SDS011;4220;42.502;24.188;2023-03-14T07:14:38;33.10;;;20.73;;
8365;SDS011;4220;42.502;24.188;2023-03-14T07:17:05;43.57;;;23.33;;
8365;SDS011;4220;42.502;24.188;2023-03-14T07:19:33;36.60;;;22.13;;
8365;SDS011;4220;42.502;24.188;2023-03-14T07:22:00;30.07;;;18.33;;
8365;SDS011;4220;42.502;24.188;2023-03-14T07:24:27;19.73;;;13.30;;
8365;SDS011;4220;42.502;24.188;2023-03-14T07:26:54;31.20;;;18.90;;
8365;SDS011;4220;42.502;24.188;2023-03-14T07:29:20;16.80;;;11.17;;
8365;SDS011;4220;42.502;24.188;2023-03-14T07:31:47;15.00;;;10.10;;
8365;SDS011;4220;42.502;24.188;2023-03-14T07:34:14;14.00;;;8.57;;
8365;SDS011;4220;42.502;24.188;2023-03-14T07:36:42;13.23;;;7.97;;
8365;SDS011;4220;42.502;24.188;2023-03-14T07:39:09;12.50;;;7.60;;
8365;SDS011;4220;42.502;24.188;2023-03-14T07:41:36;6.57;;;5.17;;
8365;SDS011;4220;42.502;24.188;2023-03-14T07:44:03;7.87;;;5.07;;
8365;SDS011;4220;42.502;24.188;2023-03-14T07:46:30;4.87;;;3.37;;
8365;SDS011;4220;42.502;24.188;2023-03-14T07:48:57;4.27;;;3.20;;
8365;SDS011;4220;42.502;24.188;2023-03-14T07:51:23;3.00;;;2.70;;
8365;SDS011;4220;42.502;24.188;2023-03-14T07:53:52;2.83;;;2.40;;
8365;SDS011;4220;42.502;24.188;2023-03-14T07:56:18;2.20;;;2.00;;
8365;SDS011;4220;42.502;24.188;2023-03-14T07:58:45;2.93;;;2.10;;
8365;SDS011;4220;42.502;24.188;2023-03-14T08:01:12;2.50;;;2.10;;
8365;SDS011;4220;42.502;24.188;2023-03-14T08:03:39;5.10;;;2.40;;
8365;SDS011;4220;42.502;24.188;2023-03-14T08:06:06;3.67;;;2.43;;
8365;SDS011;4220;42.502;24.188;2023-03-14T08:08:33;3.37;;;1.90;;
8365;SDS011;4220;42.502;24.188;2023-03-14T08:11:03;2.80;;;2.10;;
8365;SDS011;4220;42.502;24.188;2023-03-14T08:13:33;3.83;;;2.53;;
8365;SDS011;4220;42.502;24.188;2023-03-14T08:16:00;4.40;;;2.97;;
8365;SDS011;4220;42.502;24.188;2023-03-14T08:18:27;4.43;;;2.70;;
8365;SDS011;4220;42.502;24.188;2023-03-14T08:20:54;3.20;;;2.53;;
8365;SDS011;4220;42.502;24.188;2023-03-14T08:23:21;3.17;;;2.10;;
8365;SDS011;4220;42.502;24.188;2023-03-14T08:25:48;2.30;;;2.10;;
8365;SDS011;4220;42.502;24.188;2023-03-14T08:28:17;3.77;;;2.30;;
8365;SDS011;4220;42.502;24.188;2023-03-14T08:30:44;2.57;;;2.10;;
8365;SDS011;4220;42.502;24.188;2023-03-14T08:33:11;2.40;;;2.07;;
8365;SDS011;4220;42.502;24.188;2023-03-14T08:35:38;2.90;;;2.50;;
8365;SDS011;4220;42.502;24.188;2023-03-14T08:38:05;2.67;;;2.20;;
8365;SDS011;4220;42.502;24.188;2023-03-14T08:40:32;2.37;;;2.13;;
8365;SDS011;4220;42.502;24.188;2023-03-14T08:42:58;5.17;;;2.43;;
8365;SDS011;4220;42.502;24.188;2023-03-14T08:45:27;2.93;;;2.20;;
8365;SDS011;4220;42.502;24.188;2023-03-14T08:47:53;2.83;;;2.53;;
8365;SDS011;4220;42.502;24.188;2023-03-14T08:50:20;3.73;;;2.37;;
8365;SDS011;4220;42.502;24.188;2023-03-14T08:52:48;4.13;;;2.07;;
8365;SDS011;4220;42.502;24.188;2023-03-14T08:55:15;4.37;;;2.47;;
8365;SDS011;4220;42.502;24.188;2023-03-14T08:57:42;2.30;;;2.10;;
8365;SDS011;4220;42.502;24.188;2023-03-14T09:00:09;4.80;;;2.70;;
8365;SDS011;4220;42.502;24.188;2023-03-14T09:02:41;3.53;;;2.70;;
8365;SDS011;4220;42.502;24.188;2023-03-14T09:05:09;5.73;;;3.80;;
8365;SDS011;4220;42.502;24.188;2023-03-14T09:07:36;3.60;;;2.10;;
8365;SDS011;4220;42.502;24.188;2023-03-14T09:10:03;3.37;;;2.67;;
8365;SDS011;4220;42.502;24.188;2023-03-14T09:12:31;3.47;;;1.70;;
8365;SDS011;4220;42.502;24.188;2023-03-14T09:14:57;3.00;;;2.10;;
8365;SDS011;4220;42.502;24.188;2023-03-14T09:17:24;4.87;;;2.00;;
8365;SDS011;4220;42.502;24.188;2023-03-14T09:19:53;8.17;;;2.77;;
8365;SDS011;4220;42.502;24.188;2023-03-14T09:22:20;3.87;;;2.60;;
8365;SDS011;4220;42.502;24.188;2023-03-14T09:24:47;3.53;;;2.63;;
8365;SDS011;4220;42.502;24.188;2023-03-14T09:27:13;2.83;;;2.53;;
8365;SDS011;4220;42.502;24.188;2023-03-14T09:29:41;3.07;;;2.10;;
8365;SDS011;4220;42.502;24.188;2023-03-14T09:32:07;3.93;;;2.67;;
8365;SDS011;4220;42.502;24.188;2023-03-14T09:34:34;5.03;;;2.20;;
8365;SDS011;4220;42.502;24.188;2023-03-14T09:37:02;3.03;;;2.63;;
8365;SDS011;4220;42.502;24.188;2023-03-14T09:39:29;5.50;;;3.23;;
8365;SDS011;4220;42.502;24.188;2023-03-14T09:41:56;3.03;;;2.40;;
8365;SDS011;4220;42.502;24.188;2023-03-14T09:44:30;6.70;;;3.67;;
8365;SDS011;4220;42.502;24.188;2023-03-14T09:47:00;2.70;;;2.13;;
8365;SDS011;4220;42.502;24.188;2023-03-14T09:49:31;6.07;;;3.50;;
8365;SDS011;4220;42.502;24.188;2023-03-14T09:51:59;2.55;;;2.33;;
8365;SDS011;4220;42.502;24.188;2023-03-14T09:54:31;5.43;;;2.35;;
8365;SDS011;4220;42.502;24.188;2023-03-14T09:57:02;2.80;;;1.95;;
8365;SDS011;4220;42.502;24.188;2023-03-14T09:59:30;2.92;;;2.10;;
8365;SDS011;4220;42.502;24.188;2023-03-14T10:01:58;3.13;;;2.63;;
8365;SDS011;4220;42.502;24.188;2023-03-14T10:04:27;3.13;;;2.13;;
8365;SDS011;4220;42.502;24.188;2023-03-14T10:06:55;4.75;;;1.80;;
8365;SDS011;4220;42.502;24.188;2023-03-14T10:09:23;2.47;;;2.10;;
8365;SDS011;4220;42.502;24.188;2023-03-14T10:11:53;2.30;;;2.03;;
8365;SDS011;4220;42.502;24.188;2023-03-14T10:14:29;4.35;;;2.40;;
8365;SDS011;4220;42.502;24.188;2023-03-14T10:17:04;6.03;;;1.80;;
8365;SDS011;4220;42.502;24.188;2023-03-14T10:19:34;3.10;;;2.50;;
8365;SDS011;4220;42.502;24.188;2023-03-14T10:22:01;6.68;;;2.08;;
8365;SDS011;4220;42.502;24.188;2023-03-14T10:24:30;4.10;;;2.30;;
8365;SDS011;4220;42.502;24.188;2023-03-14T10:27:01;4.82;;;3.25;;
8365;SDS011;4220;42.502;24.188;2023-03-14T10:29:29;4.80;;;3.13;;
8365;SDS011;4220;42.502;24.188;2023-03-14T10:31:58;2.72;;;2.45;;
8365;SDS011;4220;42.502;24.188;2023-03-14T10:34:30;5.43;;;2.70;;
8365;SDS011;4220;42.502;24.188;2023-03-14T10:37:04;3.50;;;2.08;;
8365;SDS011;4220;42.502;24.188;2023-03-14T10:39:35;4.38;;;2.53;;
8365;SDS011;4220;42.502;24.188;2023-03-14T10:42:14;2.15;;;1.95;;
8365;SDS011;4220;42.502;24.188;2023-03-14T10:44:45;6.18;;;3.03;;
8365;SDS011;4220;42.502;24.188;2023-03-14T10:47:16;4.57;;;2.92;;
8365;SDS011;4220;42.502;24.188;2023-03-14T10:49:45;3.92;;;2.15;;
8365;SDS011;4220;42.502;24.188;2023-03-14T10:52:14;5.03;;;2.65;;
8365;SDS011;4220;42.502;24.188;2023-03-14T10:54:46;2.88;;;2.58;;
8365;SDS011;4220;42.502;24.188;2023-03-14T10:57:18;5.30;;;2.80;;
8365;SDS011;4220;42.502;24.188;2023-03-14T10:59:46;4.05;;;2.50;;
8365;SDS011;4220;42.502;24.188;2023-03-14T11:02:19;4.90;;;3.10;;
8365;SDS011;4220;42.502;24.188;2023-03-14T11:05:00;2.53;;;2.20;;
8365;SDS011;4220;42.502;24.188;2023-03-14T11:07:35;3.13;;;2.05;;
8365;SDS011;4220;42.502;24.188;2023-03-14T11:10:08;6.63;;;3.92;;
8365;SDS011;4220;42.502;24.188;2023-03-14T11:12:48;3.38;;;2.72;;
8365;SDS011;4220;42.502;24.188;2023-03-14T11:15:32;3.50;;;2.65;;
8365;SDS011;4220;42.502;24.188;2023-03-14T11:18:26;3.05;;;2.35;;
8365;SDS011;4220;42.502;24.188;2023-03-14T11:21:11;4.28;;;2.60;;
8365;SDS011;4220;42.502;24.188;2023-03-14T11:23:44;2.78;;;2.28;;
8365;SDS011;4220;42.502;24.188;2023-03-14T11:26:24;6.05;;;4.53;;
8365;SDS011;4220;42.502;24.188;2023-03-14T11:29:02;5.40;;;3.88;;
8365;SDS011;4220;42.502;24.188;2023-03-14T11:31:43;8.10;;;4.68;;
8365;SDS011;4220;42.502;24.188;2023-03-14T11:34:13;4.38;;;2.92;;
8365;SDS011;4220;42.502;24.188;2023-03-14T11:36:44;4.45;;;3.33;;
8365;SDS011;4220;42.502;24.188;2023-03-14T11:39:17;4.55;;;3.28;;
8365;SDS011;4220;42.502;24.188;2023-03-14T11:41:46;8.40;;;4.68;;
8365;SDS011;4220;42.502;24.188;2023-03-14T11:44:17;6.53;;;3.97;;
8365;SDS011;4220;42.502;24.188;2023-03-14T11:46:47;6.40;;;3.22;;
8365;SDS011;4220;42.502;24.188;2023-03-14T11:49:21;5.30;;;3.75;;
8365;SDS011;4220;42.502;24.188;2023-03-14T11:51:57;4.82;;;3.60;;
8365;SDS011;4220;42.502;24.188;2023-03-14T11:54:31;5.70;;;3.78;;
8365;SDS011;4220;42.502;24.188;2023-03-14T11:57:05;6.72;;;3.80;;
8365;SDS011;4220;42.502;24.188;2023-03-14T11:59:41;4.13;;;3.38;;
8365;SDS011;4220;42.502;24.188;2023-03-14T12:02:17;12.50;;;3.83;;
8365;SDS011;4220;42.502;24.188;2023-03-14T12:04:54;5.93;;;4.57;;
8365;SDS011;4220;42.502;24.188;2023-03-14T12:07:53;5.35;;;4.50;;
8365;SDS011;4220;42.502;24.188;2023-03-14T12:10:49;7.57;;;5.25;;
8365;SDS011;4220;42.502;24.188;2023-03-14T12:13:21;7.00;;;5.18;;
8365;SDS011;4220;42.502;24.188;2023-03-14T12:15:53;6.72;;;4.95;;
8365;SDS011;4220;42.502;24.188;2023-03-14T12:18:25;4.80;;;4.05;;
8365;SDS011;4220;42.502;24.188;2023-03-14T12:20:54;4.22;;;3.83;;
8365;SDS011;4220;42.502;24.188;2023-03-14T12:23:24;5.70;;;4.03;;
8365;SDS011;4220;42.502;24.188;2023-03-14T12:26:12;5.55;;;4.30;;
8365;SDS011;4220;42.502;24.188;2023-03-14T12:28:42;5.45;;;4.45;;
8365;SDS011;4220;42.502;24.188;2023-03-14T12:34:28;5.60;;;4.70;;
8365;SDS011;4220;42.502;24.188;2023-03-14T12:37:02;8.77;;;4.95;;
8365;SDS011;4220;42.502;24.188;2023-03-14T12:39:40;5.90;;;4.80;;
8365;SDS011;4220;42.502;24.188;2023-03-14T12:42:17;17.08;;;12.00;;
8365;SDS011;4220;42.502;24.188;2023-03-14T12:44:50;12.27;;;8.23;;
8365;SDS011;4220;42.502;24.188;2023-03-14T12:50:21;14.95;;;10.52;;
8365;SDS011;4220;42.502;24.188;2023-03-14T12:53:02;17.70;;;11.15;;
8365;SDS011;4220;42.502;24.188;2023-03-14T12:55:57;12.73;;;7.80;;
8365;SDS011;4220;42.502;24.188;2023-03-14T12:58:34;27.90;;;18.17;;
8365;SDS011;4220;42.502;24.188;2023-03-14T13:01:05;11.18;;;8.13;;
8365;SDS011;4220;42.502;24.188;2023-03-14T13:03:43;24.20;;;15.00;;
8365;SDS011;4220;42.502;24.188;2023-03-14T13:06:13;14.48;;;9.18;;
8365;SDS011;4220;42.502;24.188;2023-03-14T13:12:18;15.15;;;9.40;;
8365;SDS011;4220;42.502;24.188;2023-03-14T13:14:49;13.25;;;8.98;;
8365;SDS011;4220;42.502;24.188;2023-03-14T13:17:20;18.30;;;11.07;;
8365;SDS011;4220;42.502;24.188;2023-03-14T13:19:52;26.20;;;15.80;;
8365;SDS011;4220;42.502;24.188;2023-03-14T13:22:23;21.38;;;15.25;;
8365;SDS011;4220;42.502;24.188;2023-03-14T13:24:58;7.82;;;7.03;;
8365;SDS011;4220;42.502;24.188;2023-03-14T13:27:27;9.10;;;6.97;;
8365;SDS011;4220;42.502;24.188;2023-03-14T13:29:56;10.80;;;9.15;;
8365;SDS011;4220;42.502;24.188;2023-03-14T13:32:26;7.55;;;6.85;;
8365;SDS011;4220;42.502;24.188;2023-03-14T13:34:57;9.20;;;8.02;;
8365;SDS011;4220;42.502;24.188;2023-03-14T13:37:25;11.23;;;9.52;;
8365;SDS011;4220;42.502;24.188;2023-03-14T13:39:53;9.13;;;8.18;;
8365;SDS011;4220;42.502;24.188;2023-03-14T13:42:25;9.85;;;7.57;;
8365;SDS011;4220;42.502;24.188;2023-03-14T13:44:53;7.50;;;6.70;;
8365;SDS011;4220;42.502;24.188;2023-03-14T13:47:22;7.18;;;6.47;;
8365;SDS011;4220;42.502;24.188;2023-03-14T13:49:51;7.40;;;6.20;;
8365;SDS011;4220;42.502;24.188;2023-03-14T13:52:29;6.15;;;5.25;;
8365;SDS011;4220;42.502;24.188;2023-03-14T13:54:57;13.57;;;10.90;;
8365;SDS011;4220;42.502;24.188;2023-03-14T13:57:26;7.07;;;6.30;;
8365;SDS011;4220;42.502;24.188;2023-03-14T13:59:59;9.80;;;6.57;;
8365;SDS011;4220;42.502;24.188;2023-03-14T14:02:31;10.27;;;6.88;;
8365;SDS011;4220;42.502;24.188;2023-03-14T14:04:59;8.80;;;7.15;;
8365;SDS011;4220;42.502;24.188;2023-03-14T14:07:26;9.10;;;6.78;;
8365;SDS011;4220;42.502;24.188;2023-03-14T14:09:56;11.07;;;8.57;;
8365;SDS011;4220;42.502;24.188;2023-03-14T14:12:27;20.33;;;14.35;;
8365;SDS011;4220;42.502;24.188;2023-03-14T14:14:57;22.90;;;18.10;;
8365;SDS011;4220;42.502;24.188;2023-03-14T14:17:27;16.90;;;12.68;;
8365;SDS011;4220;42.502;24.188;2023-03-14T14:19:58;14.93;;;13.40;;
8365;SDS011;4220;42.502;24.188;2023-03-14T14:22:29;12.35;;;10.30;;
8365;SDS011;4220;42.502;24.188;2023-03-14T14:24:56;12.35;;;10.60;;
8365;SDS011;4220;42.502;24.188;2023-03-14T14:27:24;10.30;;;8.70;;
8365;SDS011;4220;42.502;24.188;2023-03-14T14:29:57;10.90;;;8.02;;
8365;SDS011;4220;42.502;24.188;2023-03-14T14:32:26;14.88;;;8.48;;
8365;SDS011;4220;42.502;24.188;2023-03-14T14:35:00;10.70;;;9.25;;
8365;SDS011;4220;42.502;24.188;2023-03-14T14:37:31;11.50;;;8.00;;
8365;SDS011;4220;42.502;24.188;2023-03-14T14:39:59;10.88;;;9.38;;
8365;SDS011;4220;42.502;24.188;2023-03-14T14:42:33;9.00;;;7.03;;
8365;SDS011;4220;42.502;24.188;2023-03-14T14:44:59;10.77;;;7.20;;
8365;SDS011;4220;42.502;24.188;2023-03-14T14:47:29;9.10;;;8.20;;
8365;SDS011;4220;42.502;24.188;2023-03-14T14:49:58;8.73;;;7.82;;
8365;SDS011;4220;42.502;24.188;2023-03-14T14:52:36;9.05;;;6.18;;
8365;SDS011;4220;42.502;24.188;2023-03-14T14:55:16;9.55;;;6.53;;
8365;SDS011;4220;42.502;24.188;2023-03-14T14:57:48;11.13;;;7.57;;
8365;SDS011;4220;42.502;24.188;2023-03-14T15:00:19;8.93;;;5.90;;
8365;SDS011;4220;42.502;24.188;2023-03-14T15:02:49;9.13;;;6.85;;
8365;SDS011;4220;42.502;24.188;2023-03-14T15:05:18;10.63;;;6.82;;
8365;SDS011;4220;42.502;24.188;2023-03-14T15:07:47;15.00;;;8.82;;
8365;SDS011;4220;42.502;24.188;2023-03-14T15:10:15;10.95;;;7.95;;
8365;SDS011;4220;42.502;24.188;2023-03-14T15:12:43;10.73;;;7.45;;
8365;SDS011;4220;42.502;24.188;2023-03-14T15:15:10;9.98;;;8.38;;